Time;durP1;ratioP1;P1;durP2;ratioP2;P2;SDS_P1;SDS_P2;PMS_P1;PMS_P2;Temp;Humidity;BMP_temperature;BMP_pressure;BME280_temperature;BME280_humidity;BME280_pressure;Samples;Min_cycle;Max_cycle;Signal;HPM_P1;HPM_P2
2022/12/20 00:01:07;;;;;;;;;;;-0.80;99.90;;;;;;5073090;28;20532;-77
2022/12/20 00:03:33;;;;;;;;;;;-0.70;99.90;;;;;;5089525;28;19919;-77
2022/12/20 00:05:59;;;;;;;;;;;-0.80;99.90;;;;;;5072910;28;19908;-76
2022/12/20 00:08:24;;;;;;;;;;;-0.70;99.90;;;;;;5072701;28;19904;-76
2022/12/20 00:10:50;;;;;;;;;;;-0.70;99.90;;;;;;5073146;28;19907;-76
2022/12/20 00:13:15;;;;;;;;;;;-0.70;99.90;;;;;;5089796;28;19919;-76
2022/12/20 00:15:41;;;;;;;;;;;-0.70;99.90;;;;;;5072708;28;19908;-76
2022/12/20 00:18:06;;;;;;;;;;;-0.80;99.90;;;;;;5089629;28;19912;-76
2022/12/20 00:20:32;;;;;;;;;;;-0.80;99.90;;;;;;5072700;28;19947;-77
2022/12/20 00:22:57;;;;;;;;;;;-0.80;99.90;;;;;;5072522;28;19966;-77
2022/12/20 00:25:23;;;;;;;;;;;-0.80;99.90;;;;;;5089556;28;20003;-75
2022/12/20 00:27:48;;;;;;;;;;;-0.70;99.90;;;;;;5071855;28;19939;-76
2022/12/20 00:30:14;;;;;;;;;;;-0.70;99.90;;;;;;5090573;28;19908;-77
2022/12/20 00:32:40;;;;;;;;;;;-0.70;99.90;;;;;;5072557;28;19908;-77
2022/12/20 00:35:06;;;;;;;;;;;-0.70;99.90;;;;;;5090593;28;19926;-76
2022/12/20 00:37:31;;;;;;;;;;;-0.60;99.90;;;;;;5072274;28;19915;-76
2022/12/20 00:39:57;;;;;;;;;;;-0.50;99.90;;;;;;5072363;28;19995;-77
2022/12/20 00:42:22;;;;;;;;;;;-0.50;99.90;;;;;;5090574;28;20063;-76
2022/12/20 00:44:48;;;;;;;;;;;-0.30;99.90;;;;;;5071875;28;19982;-77
2022/12/20 00:47:13;;;;;;;;;;;-0.30;99.90;;;;;;5072276;28;19904;-76
2022/12/20 00:49:39;;;;;;;;;;;-0.30;99.90;;;;;;5072066;28;19914;-76
2022/12/20 00:52:04;;;;;;;;;;;-0.30;99.90;;;;;;5071818;28;19915;-76
2022/12/20 00:54:30;;;;;;;;;;;-0.20;99.90;;;;;;5071874;28;20357;-77
2022/12/20 00:56:55;;;;;;;;;;;-0.20;99.90;;;;;;5071871;28;19908;-76
2022/12/20 00:59:21;;;;;;;;;;;-0.20;99.90;;;;;;5071810;28;19915;-77
2022/12/20 01:01:46;;;;;;;;;;;0.00;99.90;;;;;;5071648;28;19962;-77
2022/12/20 01:04:12;;;;;;;;;;;-0.10;99.90;;;;;;5071645;28;19924;-77
2022/12/20 01:06:38;;;;;;;;;;;-0.10;99.90;;;;;;5071611;28;20350;-77
2022/12/20 01:09:04;;;;;;;;;;;0.00;99.90;;;;;;5071507;28;19908;-76
2022/12/20 01:11:31;;;;;;;;;;;0.00;99.90;;;;;;5071653;28;19907;-77
2022/12/20 01:13:58;;;;;;;;;;;0.10;99.90;;;;;;5071496;28;19919;-78
2022/12/20 01:16:50;;;;;;;;;;;0.10;99.90;;;;;;5071285;28;19908;-76
2022/12/20 01:19:16;;;;;;;;;;;0.30;99.90;;;;;;5086423;28;19908;-77
2022/12/20 01:21:45;;;;;;;;;;;0.30;99.90;;;;;;5089328;28;19928;-76
2022/12/20 01:24:11;;;;;;;;;;;0.30;99.90;;;;;;5071445;28;19997;-76
2022/12/20 01:26:36;;;;;;;;;;;0.30;99.90;;;;;;5071491;28;19912;-77
2022/12/20 01:29:02;;;;;;;;;;;0.30;99.90;;;;;;5089479;28;20348;-76
2022/12/20 01:31:28;;;;;;;;;;;0.30;99.90;;;;;;5071565;28;19912;-77
2022/12/20 01:33:53;;;;;;;;;;;0.40;99.90;;;;;;5089625;28;19958;-77
2022/12/20 01:36:21;;;;;;;;;;;0.30;99.90;;;;;;5071393;28;19940;-77
2022/12/20 01:38:46;;;;;;;;;;;0.30;99.90;;;;;;5071386;28;19908;-77
2022/12/20 01:41:19;;;;;;;;;;;0.30;99.90;;;;;;5088188;28;19904;-77
2022/12/20 01:43:46;;;;;;;;;;;0.30;99.90;;;;;;5071080;28;19923;-77
2022/12/20 01:46:12;;;;;;;;;;;0.30;99.90;;;;;;5089386;28;20035;-77
2022/12/20 01:48:38;;;;;;;;;;;0.40;99.90;;;;;;5071312;28;20391;-76
2022/12/20 01:51:03;;;;;;;;;;;0.40;99.90;;;;;;5071130;28;20442;-77
2022/12/20 01:53:30;;;;;;;;;;;0.40;99.90;;;;;;5088501;28;20268;-77
2022/12/20 01:55:58;;;;;;;;;;;0.40;99.90;;;;;;5071383;28;19908;-77
2022/12/20 01:58:24;;;;;;;;;;;0.40;99.90;;;;;;5087884;28;19998;-77
2022/12/20 02:00:49;;;;;;;;;;;0.30;99.90;;;;;;5071040;28;19995;-77
2022/12/20 02:03:15;;;;;;;;;;;0.30;99.90;;;;;;5071096;28;19916;-77
2022/12/20 02:05:44;;;;;;;;;;;0.30;99.90;;;;;;5071003;28;19908;-78
2022/12/20 02:08:10;;;;;;;;;;;0.30;99.90;;;;;;5089343;28;19962;-77
2022/12/20 02:10:46;;;;;;;;;;;0.40;99.90;;;;;;5088196;28;19915;-77
2022/12/20 02:13:18;;;;;;;;;;;0.40;99.90;;;;;;5088947;28;20272;-77
2022/12/20 02:15:54;;;;;;;;;;;0.50;99.90;;;;;;5087225;28;19907;-77
2022/12/20 02:18:41;;;;;;;;;;;0.50;99.90;;;;;;5071313;28;19915;-77
2022/12/20 02:21:18;;;;;;;;;;;0.50;99.90;;;;;;5088040;28;20066;-77
2022/12/20 02:23:53;;;;;;;;;;;0.50;99.90;;;;;;5088885;28;19922;-77
2022/12/20 02:26:40;;;;;;;;;;;0.50;99.90;;;;;;5070684;28;19957;-77
2022/12/20 02:29:05;;;;;;;;;;;0.60;99.90;;;;;;5087117;28;19923;-77
2022/12/20 02:31:33;;;;;;;;;;;0.70;99.90;;;;;;5088838;28;20003;-76
2022/12/20 02:33:59;;;;;;;;;;;0.80;99.90;;;;;;5088915;28;20462;-77
2022/12/20 02:36:24;;;;;;;;;;;0.80;99.90;;;;;;5089307;28;20418;-77
2022/12/20 02:38:50;;;;;;;;;;;0.80;99.90;;;;;;5070914;28;20002;-77
2022/12/20 02:41:16;;;;;;;;;;;0.70;99.90;;;;;;5071297;28;20022;-77
2022/12/20 02:46:27;;;;;;;;;;;0.60;99.90;;;;;;5089552;28;20529;-78
2022/12/20 02:48:55;;;;;;;;;;;0.60;99.90;;;;;;5070766;28;19969;-77
2022/12/20 02:51:22;;;;;;;;;;;0.50;99.90;;;;;;5070948;28;19957;-77
2022/12/20 02:53:47;;;;;;;;;;;0.50;99.90;;;;;;5088668;28;19912;-77
2022/12/20 02:56:16;;;;;;;;;;;0.50;99.90;;;;;;5071011;28;19926;-77
2022/12/20 02:58:57;;;;;;;;;;;0.50;99.90;;;;;;5070756;28;19908;-77
2022/12/20 03:01:28;;;;;;;;;;;0.50;99.90;;;;;;5070874;28;19986;-77
2022/12/20 03:03:55;;;;;;;;;;;0.40;99.90;;;;;;5070971;28;20042;-77
2022/12/20 03:06:21;;;;;;;;;;;0.40;99.90;;;;;;5092400;28;19912;-77
2022/12/20 03:08:46;;;;;;;;;;;0.50;99.90;;;;;;5090752;28;19958;-76
2022/12/20 03:11:12;;;;;;;;;;;0.50;99.90;;;;;;5073998;28;19954;-76
2022/12/20 03:13:38;;;;;;;;;;;0.70;99.90;;;;;;5074036;28;19908;-77
2022/12/20 03:16:04;;;;;;;;;;;0.60;99.90;;;;;;5073831;28;19904;-77
2022/12/20 03:18:30;;;;;;;;;;;0.60;99.90;;;;;;5092221;28;19915;-77
2022/12/20 03:20:55;;;;;;;;;;;0.50;99.90;;;;;;5092046;28;19973;-77
2022/12/20 03:23:21;;;;;;;;;;;0.70;99.90;;;;;;5073649;28;19916;-77
2022/12/20 03:25:46;;;;;;;;;;;0.70;99.90;;;;;;5090676;28;20010;-78
2022/12/20 03:28:12;;;;;;;;;;;0.60;99.90;;;;;;5073547;28;19908;-77
2022/12/20 03:30:37;;;;;;;;;;;0.60;99.90;;;;;;5073608;28;20288;-77
2022/12/20 03:33:03;;;;;;;;;;;0.50;99.90;;;;;;5073981;28;19954;-77
2022/12/20 03:35:29;;;;;;;;;;;0.50;99.90;;;;;;5073608;28;19908;-78
2022/12/20 03:37:55;;;;;;;;;;;0.50;99.90;;;;;;5091835;28;19908;-78
2022/12/20 03:40:20;;;;;;;;;;;0.50;99.90;;;;;;5073466;28;19957;-77
2022/12/20 03:42:46;;;;;;;;;;;0.70;99.90;;;;;;5091303;28;19957;-77
2022/12/20 03:45:12;;;;;;;;;;;0.70;99.90;;;;;;5073415;28;19915;-77
2022/12/20 03:47:37;;;;;;;;;;;0.70;99.90;;;;;;5091580;28;20403;-77
2022/12/20 03:50:04;;;;;;;;;;;0.70;99.90;;;;;;5073216;28;19918;-77
2022/12/20 03:52:29;;;;;;;;;;;0.70;99.90;;;;;;5073118;28;19904;-77
2022/12/20 03:54:55;;;;;;;;;;;0.70;99.90;;;;;;5091392;28;19911;-78
2022/12/20 03:57:20;;;;;;;;;;;0.70;99.90;;;;;;5091418;28;19908;-77
2022/12/20 03:59:46;;;;;;;;;;;0.70;99.90;;;;;;5072956;28;20357;-77
2022/12/20 04:02:11;;;;;;;;;;;0.70;99.90;;;;;;5073368;28;19915;-77
2022/12/20 04:04:37;;;;;;;;;;;0.60;99.90;;;;;;5091363;28;19967;-78
2022/12/20 04:07:02;;;;;;;;;;;0.70;99.90;;;;;;5090063;28;19908;-77
2022/12/20 04:09:28;;;;;;;;;;;0.60;99.90;;;;;;5072907;28;19912;-77
2022/12/20 04:11:53;;;;;;;;;;;0.80;99.90;;;;;;5073140;28;19908;-77
2022/12/20 04:14:19;;;;;;;;;;;0.80;99.90;;;;;;5073000;28;19915;-77
2022/12/20 04:16:45;;;;;;;;;;;0.70;99.90;;;;;;5089150;28;20199;-76
2022/12/20 04:19:10;;;;;;;;;;;0.90;99.90;;;;;;5072901;28;20444;-77
2022/12/20 04:21:36;;;;;;;;;;;0.90;99.90;;;;;;5072864;28;20504;-77
2022/12/20 04:24:02;;;;;;;;;;;0.80;99.90;;;;;;5072947;28;19955;-77
2022/12/20 04:26:28;;;;;;;;;;;0.80;99.90;;;;;;5091153;28;19946;-78
2022/12/20 04:28:54;;;;;;;;;;;0.80;99.90;;;;;;5072640;28;20337;-78
2022/12/20 04:31:19;;;;;;;;;;;0.90;99.90;;;;;;5090982;28;20723;-77
2022/12/20 04:33:45;;;;;;;;;;;0.80;99.90;;;;;;5072455;28;20357;-78
2022/12/20 04:36:11;;;;;;;;;;;1.00;99.90;;;;;;5090875;28;19915;-77
2022/12/20 04:38:36;;;;;;;;;;;0.90;99.90;;;;;;5089519;28;20023;-78
2022/12/20 04:41:02;;;;;;;;;;;1.00;99.90;;;;;;5090966;28;20279;-78
2022/12/20 04:43:28;;;;;;;;;;;0.90;99.90;;;;;;5090653;28;19920;-77
2022/12/20 04:45:57;;;;;;;;;;;0.90;99.90;;;;;;5089822;28;20229;-78
2022/12/20 04:48:25;;;;;;;;;;;1.00;99.90;;;;;;5072427;28;19908;-76
2022/12/20 04:50:51;;;;;;;;;;;0.80;99.90;;;;;;5090582;28;20380;-77
2022/12/20 04:53:59;;;;;;;;;;;0.80;99.90;;;;;;5090656;28;19918;-77
2022/12/20 04:56:06;;;;;;;;;;;0.70;99.90;;;;;;5079460;28;19915;-78
2022/12/20 04:58:31;;;;;;;;;;;0.70;99.90;;;;;;5089326;28;19998;-77
2022/12/20 05:00:57;;;;;;;;;;;0.70;99.90;;;;;;5090586;28;19915;-78
2022/12/20 05:03:23;;;;;;;;;;;0.70;99.90;;;;;;5072065;28;19912;-77
2022/12/20 05:05:49;;;;;;;;;;;0.70;99.90;;;;;;5090386;28;19903;-78
2022/12/20 05:08:15;;;;;;;;;;;0.70;99.90;;;;;;5072231;28;19999;-77
2022/12/20 05:10:41;;;;;;;;;;;0.70;99.90;;;;;;5072475;28;20035;-77
2022/12/20 05:13:06;;;;;;;;;;;0.70;99.90;;;;;;5090470;28;19940;-77
2022/12/20 05:15:32;;;;;;;;;;;0.70;99.90;;;;;;5071910;28;19911;-77
2022/12/20 05:17:59;;;;;;;;;;;0.70;99.90;;;;;;5072316;28;19907;-78
2022/12/20 05:20:25;;;;;;;;;;;0.70;99.90;;;;;;5071954;28;19908;-78
2022/12/20 05:28:20;;;;;;;;;;;0.70;99.90;;;;;;5090598;28;19954;-78
2022/12/20 05:30:46;;;;;;;;;;;0.70;99.90;;;;;;5088534;28;19904;-78
2022/12/20 05:33:11;;;;;;;;;;;0.70;99.90;;;;;;5071405;28;19912;-77
2022/12/20 05:35:37;;;;;;;;;;;0.70;99.90;;;;;;5089968;28;19912;-78
2022/12/20 05:38:02;;;;;;;;;;;0.70;99.90;;;;;;5071572;28;19922;-77
2022/12/20 05:40:28;;;;;;;;;;;0.70;99.90;;;;;;5071634;28;19922;-77
2022/12/20 05:42:54;;;;;;;;;;;0.70;99.90;;;;;;5071533;28;19918;-77
2022/12/20 05:45:19;;;;;;;;;;;0.70;99.90;;;;;;5071510;28;19908;-77
2022/12/20 05:47:45;;;;;;;;;;;0.70;99.90;;;;;;5089491;28;19908;-77
2022/12/20 05:50:10;;;;;;;;;;;0.70;99.90;;;;;;5071492;28;19908;-78
2022/12/20 05:52:36;;;;;;;;;;;0.70;99.90;;;;;;5071338;28;19977;-77
2022/12/20 05:55:01;;;;;;;;;;;0.70;99.90;;;;;;5071658;28;19961;-77
2022/12/20 05:57:27;;;;;;;;;;;0.70;99.90;;;;;;5071589;28;19912;-77
2022/12/20 05:59:53;;;;;;;;;;;0.70;99.90;;;;;;5071433;28;19908;-78
2022/12/20 06:02:19;;;;;;;;;;;0.70;99.90;;;;;;5071305;28;20384;-78
2022/12/20 06:04:44;;;;;;;;;;;0.70;99.90;;;;;;5071499;28;19919;-78
2022/12/20 06:07:10;;;;;;;;;;;0.70;99.90;;;;;;5089653;28;19908;-78
2022/12/20 06:09:35;;;;;;;;;;;0.60;99.90;;;;;;5071216;28;19962;-77
2022/12/20 06:12:01;;;;;;;;;;;0.60;99.90;;;;;;5089310;28;19939;-77
2022/12/20 06:14:26;;;;;;;;;;;0.50;99.90;;;;;;5089554;28;19919;-77
2022/12/20 06:16:52;;;;;;;;;;;0.40;99.90;;;;;;5088370;28;19904;-78
2022/12/20 06:19:17;;;;;;;;;;;0.40;99.90;;;;;;5071096;28;19908;-78
2022/12/20 06:21:43;;;;;;;;;;;0.20;99.90;;;;;;5087617;28;19969;-77
2022/12/20 06:24:09;;;;;;;;;;;0.20;99.90;;;;;;5071022;28;19916;-77
2022/12/20 06:26:35;;;;;;;;;;;0.10;99.90;;;;;;5071223;28;19911;-77
2022/12/20 06:29:01;;;;;;;;;;;0.10;99.90;;;;;;5071156;28;19915;-77
2022/12/20 06:31:27;;;;;;;;;;;0.00;99.90;;;;;;5071005;28;19908;-77
2022/12/20 06:33:52;;;;;;;;;;;0.00;99.90;;;;;;5071585;28;19963;-78
2022/12/20 06:36:18;;;;;;;;;;;-0.10;99.90;;;;;;5071228;28;20383;-77
2022/12/20 06:38:43;;;;;;;;;;;-0.20;99.90;;;;;;5071286;28;19923;-77
2022/12/20 06:41:09;;;;;;;;;;;-0.20;99.90;;;;;;5074728;28;19919;-77
2022/12/20 06:43:34;;;;;;;;;;;-0.10;99.90;;;;;;5092810;28;20396;-78
2022/12/20 06:46:00;;;;;;;;;;;-0.10;99.90;;;;;;5092888;28;19912;-78
2022/12/20 06:48:26;;;;;;;;;;;0.00;99.90;;;;;;5074932;28;19904;-77
2022/12/20 06:50:51;;;;;;;;;;;0.10;99.90;;;;;;5074792;28;19958;-77
2022/12/20 06:53:16;;;;;;;;;;;0.00;99.90;;;;;;5075005;28;19955;-77
2022/12/20 06:55:42;;;;;;;;;;;0.20;99.90;;;;;;5092949;28;20012;-77
2022/12/20 06:58:08;;;;;;;;;;;0.10;99.90;;;;;;5092985;28;19908;-77
2022/12/20 07:00:33;;;;;;;;;;;0.20;99.90;;;;;;5074792;28;19962;-78
2022/12/20 07:02:59;;;;;;;;;;;0.20;99.90;;;;;;5092722;28;20332;-78
2022/12/20 07:05:24;;;;;;;;;;;0.30;99.90;;;;;;5074093;28;20360;-77
2022/12/20 07:07:50;;;;;;;;;;;0.30;99.90;;;;;;5074191;28;19953;-78
2022/12/20 07:10:15;;;;;;;;;;;0.30;99.90;;;;;;5091111;28;19955;-78
2022/12/20 07:12:41;;;;;;;;;;;0.30;99.90;;;;;;5074279;28;19995;-77
2022/12/20 07:15:07;;;;;;;;;;;0.30;99.90;;;;;;5074420;28;19912;-77
2022/12/20 07:17:32;;;;;;;;;;;0.30;99.90;;;;;;5073666;28;20250;-77
2022/12/20 07:19:58;;;;;;;;;;;0.40;99.90;;;;;;5074173;28;19923;-78
2022/12/20 07:22:23;;;;;;;;;;;0.40;99.90;;;;;;5090782;28;19916;-77
2022/12/20 07:24:49;;;;;;;;;;;0.60;99.90;;;;;;5073965;28;19965;-78
2022/12/20 07:27:15;;;;;;;;;;;0.60;99.90;;;;;;5074319;28;19911;-77
2022/12/20 07:29:40;;;;;;;;;;;0.70;99.90;;;;;;5073587;28;19954;-77
2022/12/20 07:32:06;;;;;;;;;;;0.80;99.90;;;;;;5074052;28;20322;-78
2022/12/20 07:34:32;;;;;;;;;;;0.90;99.90;;;;;;5091956;28;19904;-78
2022/12/20 07:36:58;;;;;;;;;;;1.00;99.90;;;;;;5074174;28;20294;-78
2022/12/20 07:39:23;;;;;;;;;;;1.20;99.90;;;;;;5073588;28;19961;-77
2022/12/20 07:41:51;;;;;;;;;;;1.40;99.90;;;;;;5090385;28;19904;-77
2022/12/20 07:44:17;;;;;;;;;;;1.40;99.90;;;;;;5073657;28;19962;-78
2022/12/20 07:46:42;;;;;;;;;;;1.60;99.90;;;;;;5073638;28;19951;-78
2022/12/20 07:49:08;;;;;;;;;;;1.80;99.90;;;;;;5091630;28;20445;-77
2022/12/20 07:51:35;;;;;;;;;;;1.90;99.90;;;;;;5073437;28;19991;-77
2022/12/20 07:54:07;;;;;;;;;;;2.00;99.90;;;;;;5091635;28;19951;-77
2022/12/20 07:56:34;;;;;;;;;;;2.10;99.90;;;;;;5073101;28;19908;-77
2022/12/20 07:58:59;;;;;;;;;;;2.10;99.90;;;;;;5073611;28;19911;-78
2022/12/20 08:01:27;;;;;;;;;;;2.10;99.90;;;;;;5073114;28;19904;-77
2022/12/20 08:03:55;;;;;;;;;;;2.00;99.90;;;;;;5073076;28;19965;-77
2022/12/20 08:06:21;;;;;;;;;;;2.00;99.90;;;;;;5073253;28;20384;-77
2022/12/20 08:08:49;;;;;;;;;;;1.90;99.90;;;;;;5072963;28;19918;-77
2022/12/20 08:11:15;;;;;;;;;;;1.80;99.90;;;;;;5090037;28;19930;-77
2022/12/20 08:13:41;;;;;;;;;;;1.80;99.90;;;;;;5072919;28;20360;-78
2022/12/20 08:16:06;;;;;;;;;;;1.70;99.90;;;;;;5073146;28;20007;-77
2022/12/20 08:18:32;;;;;;;;;;;1.70;99.90;;;;;;5089697;28;19904;-77
2022/12/20 08:20:57;;;;;;;;;;;1.70;99.90;;;;;;5072749;28;19916;-77
2022/12/20 08:23:23;;;;;;;;;;;1.70;99.90;;;;;;5072922;28;19920;-77
2022/12/20 08:25:49;;;;;;;;;;;1.70;99.90;;;;;;5089205;28;19908;-77
2022/12/20 08:28:14;;;;;;;;;;;1.70;99.90;;;;;;5072819;28;19908;-78
2022/12/20 08:30:40;;;;;;;;;;;1.70;99.90;;;;;;5072458;28;19951;-76
2022/12/20 08:33:05;;;;;;;;;;;1.70;99.90;;;;;;5072501;28;19908;-78
2022/12/20 08:35:31;;;;;;;;;;;1.70;99.90;;;;;;5072678;28;19912;-77
2022/12/20 08:37:56;;;;;;;;;;;1.60;99.90;;;;;;5072564;28;20312;-77
2022/12/20 08:40:22;;;;;;;;;;;1.60;99.90;;;;;;5072582;28;20368;-77
2022/12/20 08:42:47;;;;;;;;;;;1.60;99.90;;;;;;5072531;28;19919;-77
2022/12/20 08:45:14;;;;;;;;;;;1.70;99.90;;;;;;5089443;28;20292;-77
2022/12/20 08:47:39;;;;;;;;;;;1.80;99.90;;;;;;5071952;28;19908;-77
2022/12/20 08:50:05;;;;;;;;;;;1.80;99.90;;;;;;5090627;28;19915;-78
2022/12/20 08:52:31;;;;;;;;;;;1.90;99.90;;;;;;5089321;28;20397;-77
2022/12/20 08:54:56;;;;;;;;;;;2.00;99.90;;;;;;5090697;28;19985;-78
2022/12/20 08:57:22;;;;;;;;;;;1.90;99.90;;;;;;5072249;28;19908;-77
2022/12/20 08:59:47;;;;;;;;;;;1.90;99.90;;;;;;5072056;28;20387;-78
2022/12/20 09:02:13;;;;;;;;;;;2.00;99.90;;;;;;5071578;28;19915;-78
2022/12/20 09:04:39;;;;;;;;;;;2.00;99.90;;;;;;5072168;28;19912;-77
2022/12/20 09:07:04;;;;;;;;;;;2.10;99.90;;;;;;5072102;28;20383;-78
2022/12/20 09:09:30;;;;;;;;;;;2.10;99.90;;;;;;5072192;28;19908;-77
2022/12/20 09:11:56;;;;;;;;;;;2.10;99.90;;;;;;5071908;28;19908;-78
2022/12/20 09:14:22;;;;;;;;;;;2.10;99.90;;;;;;5071786;28;19908;-78
2022/12/20 09:16:48;;;;;;;;;;;2.10;99.90;;;;;;5090314;28;19916;-77
2022/12/20 09:19:13;;;;;;;;;;;2.20;99.90;;;;;;5071841;28;19962;-77
2022/12/20 09:21:39;;;;;;;;;;;2.30;99.90;;;;;;5071983;28;19916;-77
2022/12/20 09:24:05;;;;;;;;;;;2.30;99.90;;;;;;5090521;28;19989;-77
2022/12/20 09:26:31;;;;;;;;;;;2.30;99.90;;;;;;5071922;28;20367;-77
2022/12/20 09:28:57;;;;;;;;;;;2.30;99.90;;;;;;5090451;28;19904;-78
2022/12/20 09:31:24;;;;;;;;;;;2.40;99.90;;;;;;5072465;28;20398;-77
2022/12/20 09:33:52;;;;;;;;;;;2.50;99.90;;;;;;5071851;28;19908;-77
2022/12/20 09:36:18;;;;;;;;;;;2.50;99.90;;;;;;5089909;28;20463;-78
2022/12/20 09:38:45;;;;;;;;;;;2.60;99.90;;;;;;5088670;28;19955;-77
2022/12/20 09:41:18;;;;;;;;;;;2.60;99.90;;;;;;5089292;28;19908;-77
2022/12/20 09:43:44;;;;;;;;;;;2.60;99.90;;;;;;5089579;28;19915;-78
2022/12/20 09:46:11;;;;;;;;;;;2.50;99.90;;;;;;5088595;28;20042;-77
2022/12/20 09:48:37;;;;;;;;;;;2.50;99.90;;;;;;5089610;28;19907;-77
2022/12/20 09:51:13;;;;;;;;;;;2.50;99.90;;;;;;5071419;28;19950;-77
2022/12/20 09:53:47;;;;;;;;;;;2.60;99.90;;;;;;5089989;28;19908;-79
2022/12/20 09:56:23;;;;;;;;;;;2.70;99.90;;;;;;5071971;28;20372;-77
2022/12/20 09:58:49;;;;;;;;;;;2.70;99.90;;;;;;5071985;28;19908;-77
2022/12/20 10:01:16;;;;;;;;;;;2.80;99.90;;;;;;5071853;28;19963;-77
2022/12/20 10:03:42;;;;;;;;;;;2.80;99.90;;;;;;5090030;28;19920;-77
2022/12/20 10:06:10;;;;;;;;;;;2.70;99.90;;;;;;5088107;28;19973;-77
2022/12/20 10:08:45;;;;;;;;;;;2.60;99.90;;;;;;5072126;28;20396;-77
2022/12/20 10:11:14;;;;;;;;;;;2.70;99.90;;;;;;5071663;28;19965;-77
2022/12/20 10:13:49;;;;;;;;;;;2.70;99.90;;;;;;5072533;28;19949;-77
2022/12/20 10:16:23;;;;;;;;;;;2.60;99.90;;;;;;5093838;28;19915;-77
2022/12/20 10:19:13;;;;;;;;;;;2.70;99.90;;;;;;5075155;28;19904;-77
2022/12/20 10:21:50;;;;;;;;;;;2.70;99.90;;;;;;5074722;28;20485;-78
2022/12/20 10:24:17;;;;;;;;;;;2.60;99.90;;;;;;5074979;28;20395;-77
2022/12/20 10:26:43;;;;;;;;;;;2.50;99.90;;;;;;5093199;28;19915;-77
2022/12/20 10:29:08;;;;;;;;;;;2.50;99.90;;;;;;5075008;28;19908;-78
2022/12/20 10:31:34;;;;;;;;;;;2.50;99.90;;;;;;5093160;28;19915;-77
2022/12/20 10:34:00;;;;;;;;;;;2.60;99.90;;;;;;5074883;28;19914;-77
2022/12/20 10:36:30;;;;;;;;;;;2.60;99.90;;;;;;5092767;28;19911;-77
2022/12/20 10:39:00;;;;;;;;;;;2.60;99.90;;;;;;5074695;28;19911;-77
2022/12/20 10:41:30;;;;;;;;;;;2.60;99.90;;;;;;5074620;28;19905;-77
2022/12/20 10:44:00;;;;;;;;;;;2.70;99.90;;;;;;5074580;28;19916;-78
2022/12/20 10:46:37;;;;;;;;;;;2.70;99.90;;;;;;5092921;28;19963;-77
2022/12/20 10:49:25;;;;;;;;;;;2.80;99.90;;;;;;5092629;28;20016;-76
2022/12/20 10:51:52;;;;;;;;;;;2.90;99.90;;;;;;5072102;28;20367;-77
2022/12/20 10:54:22;;;;;;;;;;;2.90;99.90;;;;;;5093026;28;19912;-77
2022/12/20 10:56:58;;;;;;;;;;;2.80;99.90;;;;;;5092710;28;20039;-77
2022/12/20 10:59:29;;;;;;;;;;;3.10;99.90;;;;;;5092714;28;20002;-77
2022/12/20 11:01:55;;;;;;;;;;;3.10;99.90;;;;;;5091334;28;19908;-77
2022/12/20 11:04:34;;;;;;;;;;;3.10;99.90;;;;;;5074619;28;19912;-77
2022/12/20 11:07:01;;;;;;;;;;;3.20;99.90;;;;;;5092834;28;19914;-77
2022/12/20 11:09:26;;;;;;;;;;;3.20;99.90;;;;;;5074324;28;20273;-77
2022/12/20 11:11:58;;;;;;;;;;;3.20;99.90;;;;;;5091123;28;19915;-78
2022/12/20 11:14:23;;;;;;;;;;;3.30;99.90;;;;;;5091078;28;19907;-76
2022/12/20 11:16:50;;;;;;;;;;;3.20;99.90;;;;;;5091167;28;19954;-77
2022/12/20 11:19:34;;;;;;;;;;;3.30;99.90;;;;;;5074185;28;19954;-78
2022/12/20 11:22:06;;;;;;;;;;;3.30;99.90;;;;;;5073627;28;19919;-77
2022/12/20 11:24:44;;;;;;;;;;;3.20;99.90;;;;;;5072991;28;19974;-77
2022/12/20 11:27:14;;;;;;;;;;;3.30;99.90;;;;;;5073531;28;19908;-76
2022/12/20 11:30:05;;;;;;;;;;;3.30;99.90;;;;;;5092088;28;20277;-77
2022/12/20 11:32:30;;;;;;;;;;;3.40;99.90;;;;;;5094147;28;19908;-77
2022/12/20 11:35:11;;;;;;;;;;;3.30;99.90;;;;;;5090783;28;19904;-77
2022/12/20 11:37:43;;;;;;;;;;;3.20;99.90;;;;;;5073315;28;19908;-77
2022/12/20 11:40:18;;;;;;;;;;;3.10;99.90;;;;;;5074029;28;19951;-78
2022/12/20 11:42:44;;;;;;;;;;;3.10;99.90;;;;;;5090533;28;19958;-78
2022/12/20 11:45:28;;;;;;;;;;;3.20;99.90;;;;;;5090547;28;20006;-78
2022/12/20 11:48:23;;;;;;;;;;;3.20;99.90;;;;;;5091656;28;19915;-77
2022/12/20 11:50:54;;;;;;;;;;;3.20;99.90;;;;;;5078249;28;19904;-77
2022/12/20 11:53:39;;;;;;;;;;;3.20;99.90;;;;;;5090440;28;20415;-77
2022/12/20 11:56:15;;;;;;;;;;;3.30;99.90;;;;;;5091548;28;20266;-76
2022/12/20 11:58:51;;;;;;;;;;;3.20;99.90;;;;;;5073158;28;20366;-76
2022/12/20 12:01:18;;;;;;;;;;;3.10;99.90;;;;;;5091775;28;19908;-78
2022/12/20 12:03:52;;;;;;;;;;;3.10;99.90;;;;;;5072908;28;19923;-77
2022/12/20 12:06:24;;;;;;;;;;;3.10;99.90;;;;;;5091013;28;19966;-77
2022/12/20 12:08:53;;;;;;;;;;;3.00;99.90;;;;;;5091460;28;20308;-76
2022/12/20 12:11:25;;;;;;;;;;;2.90;99.90;;;;;;5073504;28;20287;-78
2022/12/20 12:13:51;;;;;;;;;;;2.90;99.90;;;;;;5091749;28;19908;-78
2022/12/20 12:16:19;;;;;;;;;;;2.90;99.90;;;;;;5073229;28;19999;-77
2022/12/20 12:18:45;;;;;;;;;;;2.90;99.90;;;;;;5089896;28;20010;-76
2022/12/20 12:21:18;;;;;;;;;;;2.90;99.90;;;;;;5073087;28;20007;-77
2022/12/20 12:23:43;;;;;;;;;;;2.80;99.90;;;;;;5089493;28;19923;-77
2022/12/20 12:26:29;;;;;;;;;;;2.90;99.90;;;;;;5073057;28;19912;-77
2022/12/20 12:28:57;;;;;;;;;;;3.00;99.90;;;;;;5072198;28;19950;-77
2022/12/20 12:31:42;;;;;;;;;;;3.00;99.90;;;;;;5091073;28;19904;-76
2022/12/20 12:34:17;;;;;;;;;;;3.00;99.90;;;;;;5072461;28;19931;-77
2022/12/20 12:36:42;;;;;;;;;;;2.90;99.90;;;;;;5089459;28;19908;-77
2022/12/20 12:39:23;;;;;;;;;;;3.10;99.90;;;;;;5089394;28;20601;-77
2022/12/20 12:42:12;;;;;;;;;;;3.10;99.90;;;;;;5090466;28;20388;-77
2022/12/20 12:44:58;;;;;;;;;;;3.10;99.90;;;;;;5066654;28;19954;-77
2022/12/20 12:47:32;;;;;;;;;;;3.10;99.90;;;;;;5072457;28;19951;-78
2022/12/20 12:49:58;;;;;;;;;;;3.20;99.90;;;;;;5089177;28;20323;-77
2022/12/20 12:52:41;;;;;;;;;;;3.30;99.90;;;;;;5072150;28;19908;-76
2022/12/20 12:55:25;;;;;;;;;;;3.40;99.90;;;;;;5072358;28;20346;-77
2022/12/20 12:57:55;;;;;;;;;;;3.40;99.90;;;;;;5072174;28;19908;-77
2022/12/20 13:00:40;;;;;;;;;;;3.50;99.90;;;;;;5072011;28;19908;-78
2022/12/20 13:03:13;;;;;;;;;;;3.50;99.90;;;;;;5071624;28;19914;-77
2022/12/20 13:05:38;;;;;;;;;;;3.40;99.90;;;;;;5088805;28;19918;-77
2022/12/20 13:08:13;;;;;;;;;;;3.20;99.90;;;;;;5090304;28;19908;-76
2022/12/20 13:10:39;;;;;;;;;;;3.30;99.90;;;;;;5072244;28;19908;-77
2022/12/20 13:13:11;;;;;;;;;;;3.20;99.90;;;;;;5071917;28;20365;-77
2022/12/20 13:15:40;;;;;;;;;;;3.10;99.90;;;;;;5089942;28;20375;-77
2022/12/20 13:18:05;;;;;;;;;;;3.10;99.90;;;;;;5071787;28;20600;-77
2022/12/20 13:20:32;;;;;;;;;;;3.00;99.90;;;;;;5089219;28;19957;-77
2022/12/20 13:23:11;;;;;;;;;;;2.90;99.90;;;;;;5090005;28;19928;-77
2022/12/20 13:25:50;;;;;;;;;;;2.90;99.90;;;;;;5072011;28;19931;-77
2022/12/20 13:28:22;;;;;;;;;;;2.80;99.90;;;;;;5071874;28;19966;-78
2022/12/20 13:31:08;;;;;;;;;;;2.90;99.90;;;;;;5071722;28;19927;-77
2022/12/20 13:33:38;;;;;;;;;;;3.00;99.90;;;;;;5089546;28;19927;-77
2022/12/20 13:36:24;;;;;;;;;;;2.80;99.90;;;;;;5071609;28;20007;-77
2022/12/20 13:38:51;;;;;;;;;;;2.80;99.90;;;;;;5089467;28;19917;-77
2022/12/20 13:41:26;;;;;;;;;;;2.80;99.90;;;;;;5071332;28;20293;-78
2022/12/20 13:43:52;;;;;;;;;;;2.70;99.90;;;;;;5089666;28;19923;-77
2022/12/20 13:46:24;;;;;;;;;;;2.70;99.90;;;;;;5072303;28;19912;-77
2022/12/20 13:48:51;;;;;;;;;;;2.70;99.90;;;;;;5091452;28;20304;-77
2022/12/20 13:51:21;;;;;;;;;;;2.70;99.90;;;;;;5072987;28;19908;-76
2022/12/20 13:53:56;;;;;;;;;;;2.60;99.90;;;;;;5072396;28;19964;-78
2022/12/20 13:56:28;;;;;;;;;;;2.60;99.90;;;;;;5073091;28;19905;-77
2022/12/20 13:58:55;;;;;;;;;;;2.50;99.90;;;;;;5091319;28;19915;-77
2022/12/20 14:01:21;;;;;;;;;;;2.50;99.90;;;;;;5073166;28;20049;-77
2022/12/20 14:03:47;;;;;;;;;;;2.50;99.90;;;;;;5091226;28;19912;-77
2022/12/20 14:06:14;;;;;;;;;;;2.40;99.90;;;;;;5073057;28;19919;-78
2022/12/20 14:08:44;;;;;;;;;;;2.50;99.90;;;;;;5090340;28;19915;-77
2022/12/20 14:11:12;;;;;;;;;;;2.50;99.90;;;;;;5071975;28;19908;-78
2022/12/20 14:13:37;;;;;;;;;;;2.40;99.90;;;;;;5090493;28;19904;-77
2022/12/20 14:16:09;;;;;;;;;;;2.20;99.90;;;;;;5072332;28;19911;-77
2022/12/20 14:18:35;;;;;;;;;;;2.20;99.90;;;;;;5090423;28;20388;-77
2022/12/20 14:21:04;;;;;;;;;;;2.10;99.90;;;;;;5090120;28;19908;-78
2022/12/20 14:23:59;;;;;;;;;;;2.00;99.90;;;;;;5071317;28;20451;-77
2022/12/20 14:26:34;;;;;;;;;;;1.90;99.90;;;;;;5062829;28;19908;-76
2022/12/20 14:29:04;;;;;;;;;;;1.90;99.90;;;;;;5089112;28;19915;-78
2022/12/20 14:31:32;;;;;;;;;;;1.80;99.90;;;;;;5090341;28;19907;-77
2022/12/20 14:34:09;;;;;;;;;;;1.80;99.90;;;;;;5090642;28;19920;-77
2022/12/20 14:36:35;;;;;;;;;;;1.80;99.90;;;;;;5087917;28;19908;-77
2022/12/20 14:39:20;;;;;;;;;;;1.70;99.90;;;;;;5090388;28;19904;-77
2022/12/20 14:41:45;;;;;;;;;;;1.60;99.90;;;;;;5089463;28;19907;-77
2022/12/20 14:44:19;;;;;;;;;;;1.60;99.90;;;;;;5089322;28;20061;-77